Hoboken Marine 1 — WDG8865 — position and weather

sailwx.info

Track history (hours):
 
Tides and Currents Weather Stations Pressure Air Temp Water Temp Dewpoint Dewpoint Depression Visibility Wind Speed Wind Dir Waves Ship Positions

Hoboken Marine 1

Owner: Hoboken Fire Dept, Hoboken, NJ. More information available from US FCC via Universal Licensing System.

Last reported at 2017-Dec-01 18:47 UTC. Time now 2017-Dec-16 13:10 UTC.
Position N 40°45' W 074°01'.
Warning: this ship's position is 14 days out of date.

Length 9 m.

Type: SAR. MMSI: 367581860.

Date/timePositionNaut miles runAvg speedWind from/ knotsBaromVisibWave heightAir tempDewpointWater temp
2017-Dec-01 18:47N 40°45' W 074°01'0 0.0
2017-Nov-29 21:03N 40°45' W 074°01'0 0.1
2017-Nov-29 21:00N 40°45' W 074°01'714.6
2017-Nov-29 20:30N 40°52' W 073°57'815.6
2017-Nov-29 20:00N 40°45' W 074°01'1 1.4
2017-Nov-29 19:30N 40°44' W 074°02'  
2017-Nov-26 16:17N 40°45' W 074°01'0 0.0
2017-Nov-25 21:11N 40°45' W 074°01'1 7.7
2017-Nov-25 21:01N 40°46' W 074°01'510.7
2017-Nov-25 20:30N 40°51' W 073°57'7 7.1
2017-Nov-25 19:33N 40°45' W 074°01'0 0.0
2017-Nov-25 19:29N 40°45' W 074°01'0 0.0
2017-Nov-24 16:53N 40°45' W 074°01'3 6.8
2017-Nov-24 16:30N 40°43' W 074°03'2 3.7
2017-Nov-24 16:00N 40°44' W 074°01'0 0.1
2017-Nov-24 15:30N 40°44' W 074°01'0 0.1
2017-Nov-24 15:00N 40°44' W 074°01'0 0.3
2017-Nov-24 14:30N 40°44' W 074°01'0 0.3
2017-Nov-24 14:00N 40°44' W 074°02'0 0.5
2017-Nov-24 13:30N 40°44' W 074°02'1 0.1
2017-Nov-24 03:45N 40°45' W 074°01'1 4.0
2017-Nov-24 03:31N 40°44' W 074°01'0 0.2
2017-Nov-24 03:00N 40°44' W 074°02'  
Track history (hours):
 
Tides and Currents Weather Stations Pressure Air Temp Water Temp Dewpoint Dewpoint Depression Visibility Wind Speed Wind Dir Waves Ship Positions

Hoboken Marine 1

Owner: Hoboken Fire Dept, Hoboken, NJ. More information available from US FCC via Universal Licensing System.

Last reported at 2017-Dec-01 18:47 UTC. Time now 2017-Dec-16 13:10 UTC.
Position N 40°45' W 074°01'.
Warning: this ship's position is 14 days out of date.

Length 9 m.

Type: SAR. MMSI: 367581860.

Date/timePositionNaut miles runAvg speedWind from/ knotsBaromVisibWave heightAir tempDewpointWater temp
2017-Dec-01 18:47N 40°45' W 074°01'0 0.0
2017-Nov-29 21:03N 40°45' W 074°01'0 0.1
2017-Nov-29 21:00N 40°45' W 074°01'714.6
2017-Nov-29 20:30N 40°52' W 073°57'815.6
2017-Nov-29 20:00N 40°45' W 074°01'1 1.4
2017-Nov-29 19:30N 40°44' W 074°02'  
2017-Nov-26 16:17N 40°45' W 074°01'0 0.0
2017-Nov-25 21:11N 40°45' W 074°01'1 7.7
2017-Nov-25 21:01N 40°46' W 074°01'510.7
2017-Nov-25 20:30N 40°51' W 073°57'7 7.1
2017-Nov-25 19:33N 40°45' W 074°01'0 0.0
2017-Nov-25 19:29N 40°45' W 074°01'0 0.0
2017-Nov-24 16:53N 40°45' W 074°01'3 6.8
2017-Nov-24 16:30N 40°43' W 074°03'2 3.7
2017-Nov-24 16:00N 40°44' W 074°01'0 0.1
2017-Nov-24 15:30N 40°44' W 074°01'0 0.1
2017-Nov-24 15:00N 40°44' W 074°01'0 0.3
2017-Nov-24 14:30N 40°44' W 074°01'0 0.3
2017-Nov-24 14:00N 40°44' W 074°02'0 0.5
2017-Nov-24 13:30N 40°44' W 074°02'1 0.1
2017-Nov-24 03:45N 40°45' W 074°01'1 4.0
2017-Nov-24 03:31N 40°44' W 074°01'0 0.2
2017-Nov-24 03:00N 40°44' W 074°02'  

Dump ship's entire track history